createdAt,value
2018-11-28T00:06:19.000Z,35.373
2018-11-28T00:16:19.000Z,35.186
2018-11-28T00:26:19.000Z,35.333
2018-11-28T00:36:19.000Z,35.285
2018-11-28T00:46:19.000Z,34.563
2018-11-28T00:56:19.000Z,34.692
2018-11-28T01:06:19.000Z,34.667
2018-11-28T01:16:19.000Z,34.674
2018-11-28T01:26:19.000Z,34.66
2018-11-28T01:36:19.000Z,34.884
2018-11-28T01:46:19.000Z,34.923
2018-11-28T01:56:19.000Z,34.964
2018-11-28T02:06:19.000Z,34.993
2018-11-28T02:16:20.000Z,35.044
2018-11-28T02:26:19.000Z,34.999
2018-11-28T02:36:20.000Z,35.125
2018-11-28T02:46:20.000Z,35.101
2018-11-28T02:56:20.000Z,35.044
2018-11-28T03:06:20.000Z,34.988
2018-11-28T03:16:20.000Z,34.997
2018-11-28T03:26:20.000Z,35.037
2018-11-28T03:36:20.000Z,35.142
2018-11-28T03:46:20.000Z,35.022
2018-11-28T03:56:20.000Z,35.062
2018-11-28T04:06:20.000Z,35.007
2018-11-28T04:16:20.000Z,34.887
2018-11-28T04:26:20.000Z,35.677
2018-11-28T04:36:20.000Z,35.406
2018-11-28T04:46:20.000Z,35.62
2018-11-28T04:56:20.000Z,35.961
2018-11-28T05:06:20.000Z,35.669
2018-11-28T05:26:20.000Z,36.107
2018-11-28T05:36:20.000Z,35.451
2018-11-28T05:46:20.000Z,35.696
2018-11-28T05:56:20.000Z,35.534
2018-11-28T06:06:20.000Z,35.543
2018-11-28T06:16:20.000Z,35.457
2018-11-28T06:26:20.000Z,34.041
2018-11-28T06:46:20.000Z,33.175
2018-11-28T06:56:20.000Z,33.131
2018-11-28T07:06:20.000Z,33.002
2018-11-28T07:16:21.000Z,32.712
2018-11-28T07:26:20.000Z,32.702
2018-11-28T07:36:20.000Z,32.756
2018-11-28T07:46:20.000Z,32.63
2018-11-28T07:56:20.000Z,32.492
2018-11-28T08:06:20.000Z,32.723
2018-11-28T08:16:20.000Z,32.594
2018-11-28T08:26:20.000Z,32.12
2018-11-28T08:36:20.000Z,32.153
2018-11-28T08:46:20.000Z,32.304
2018-11-28T08:56:20.000Z,31.572
2018-11-28T09:06:20.000Z,31.054
2018-11-28T09:16:20.000Z,30.86
2018-11-28T09:26:20.000Z,30.59
2018-11-28T09:36:20.000Z,30.505
2018-11-28T09:46:20.000Z,30.357
2018-11-28T09:56:20.000Z,30.076
2018-11-28T10:06:20.000Z,30.466
2018-11-28T10:16:20.000Z,30.101
2018-11-28T10:26:20.000Z,31.17
2018-11-28T10:36:20.000Z,31.241
2018-11-28T10:46:20.000Z,31.405
2018-11-28T10:56:21.000Z,31.535
2018-11-28T11:06:21.000Z,31.441
2018-11-28T11:16:21.000Z,31.397
2018-11-28T11:26:21.000Z,31.312
2018-11-28T11:36:21.000Z,31.357
2018-11-28T11:46:21.000Z,31.24
2018-11-28T11:56:21.000Z,31.188
2018-11-28T12:06:21.000Z,31.275
2018-11-28T12:16:21.000Z,31.212
2018-11-28T12:26:21.000Z,31.311
2018-11-28T12:46:21.000Z,31.052
2018-11-28T12:56:21.000Z,31.196
2018-11-28T13:06:21.000Z,31.218
2018-11-28T13:16:21.000Z,31.089
2018-11-28T13:26:21.000Z,31.037
2018-11-28T13:36:21.000Z,30.962
2018-11-28T13:46:21.000Z,30.768
2018-11-28T14:06:21.000Z,30.404
2018-11-28T14:16:21.000Z,30.721
2018-11-28T14:26:22.000Z,30.758
2018-11-28T14:36:21.000Z,30.945
2018-11-28T14:46:21.000Z,30.958
2018-11-28T14:56:21.000Z,31.058
2018-11-28T15:06:21.000Z,31.016
2018-11-28T15:16:21.000Z,31.029
2018-11-28T15:26:21.000Z,30.957
2018-11-28T15:36:21.000Z,30.774
2018-11-28T15:46:21.000Z,30.742
2018-11-28T15:56:21.000Z,30.785
2018-11-28T16:06:21.000Z,30.805
2018-11-28T16:16:21.000Z,30.632
2018-11-28T16:26:21.000Z,29.539
2018-11-28T16:36:21.000Z,29.527
2018-11-28T16:46:21.000Z,29.343
2018-11-28T16:56:21.000Z,29.279
2018-11-28T17:06:21.000Z,29.355
2018-11-28T17:16:21.000Z,29.357
2018-11-28T17:26:21.000Z,29.249
2018-11-28T17:36:21.000Z,29.074
2018-11-28T17:46:22.000Z,29.095
2018-11-28T17:56:21.000Z,28.9
2018-11-28T18:06:21.000Z,29.085
2018-11-28T18:16:21.000Z,29.282
2018-11-28T18:26:21.000Z,29.195
2018-11-28T18:36:21.000Z,29.275
2018-11-28T18:46:21.000Z,29.264
2018-11-28T18:56:21.000Z,29.492
2018-11-28T19:06:22.000Z,29.219
2018-11-28T19:16:22.000Z,29.197
2018-11-28T19:26:22.000Z,29.373
2018-11-28T19:36:22.000Z,29.647
2018-11-28T19:46:22.000Z,29.878
2018-11-28T19:56:22.000Z,29.989
2018-11-28T20:06:22.000Z,30.078
2018-11-28T20:16:22.000Z,30.188
2018-11-28T20:26:22.000Z,30.334
2018-11-28T20:36:22.000Z,30.588
2018-11-28T20:46:22.000Z,30.71
2018-11-28T20:56:23.000Z,30.756
2018-11-28T21:06:22.000Z,30.845
2018-11-28T21:16:22.000Z,30.835
2018-11-28T21:26:22.000Z,30.825
2018-11-28T21:36:22.000Z,30.923
2018-11-28T21:46:22.000Z,30.836
2018-11-28T21:56:25.000Z,30.858
2018-11-28T22:06:22.000Z,32.142
2018-11-28T22:16:22.000Z,30.975
2018-11-28T22:26:22.000Z,30.835
2018-11-28T22:36:22.000Z,30.91
2018-11-28T22:46:22.000Z,30.964
2018-11-28T22:56:22.000Z,31.261
2018-11-28T23:06:22.000Z,31.433
2018-11-28T23:16:22.000Z,31.432
2018-11-28T23:26:22.000Z,31.452
2018-11-28T23:36:22.000Z,31.714
2018-11-28T23:46:22.000Z,31.976
2018-11-28T23:56:22.000Z,31.862
